sensor_id;sensor_type;location;lat;lon;timestamp;P1;durP1;ratioP1;P2;durP2;ratioP2
48685;SDS011;34485;51.536;3.816;2023-07-13T00:01:11;14.18;;;3.17;;
48685;SDS011;34485;51.536;3.816;2023-07-13T00:03:40;8.80;;;2.97;;
48685;SDS011;34485;51.536;3.816;2023-07-13T00:06:06;15.57;;;3.47;;
48685;SDS011;34485;51.536;3.816;2023-07-13T00:08:33;16.75;;;3.72;;
48685;SDS011;34485;51.536;3.816;2023-07-13T00:11:00;13.43;;;3.30;;
48685;SDS011;34485;51.536;3.816;2023-07-13T00:13:26;18.60;;;4.00;;
48685;SDS011;34485;51.536;3.816;2023-07-13T00:15:52;15.43;;;3.85;;
48685;SDS011;34485;51.536;3.816;2023-07-13T00:18:19;13.17;;;2.93;;
48685;SDS011;34485;51.536;3.816;2023-07-13T00:20:45;11.63;;;3.20;;
48685;SDS011;34485;51.536;3.816;2023-07-13T00:23:11;11.02;;;2.70;;
48685;SDS011;34485;51.536;3.816;2023-07-13T00:25:37;8.23;;;3.37;;
48685;SDS011;34485;51.536;3.816;2023-07-13T00:28:02;11.95;;;3.92;;
48685;SDS011;34485;51.536;3.816;2023-07-13T00:30:28;16.27;;;4.25;;
48685;SDS011;34485;51.536;3.816;2023-07-13T00:32:54;17.00;;;4.07;;
48685;SDS011;34485;51.536;3.816;2023-07-13T00:35:20;13.27;;;3.75;;
48685;SDS011;34485;51.536;3.816;2023-07-13T00:37:46;10.10;;;3.23;;
48685;SDS011;34485;51.536;3.816;2023-07-13T00:40:12;8.43;;;3.15;;
48685;SDS011;34485;51.536;3.816;2023-07-13T00:42:39;13.38;;;3.80;;
48685;SDS011;34485;51.536;3.816;2023-07-13T00:47:38;10.38;;;3.55;;
48685;SDS011;34485;51.536;3.816;2023-07-13T00:50:09;11.15;;;3.88;;
48685;SDS011;34485;51.536;3.816;2023-07-13T00:52:37;16.90;;;3.47;;
48685;SDS011;34485;51.536;3.816;2023-07-13T00:55:07;14.40;;;3.78;;
48685;SDS011;34485;51.536;3.816;2023-07-13T00:57:34;14.77;;;3.13;;
48685;SDS011;34485;51.536;3.816;2023-07-13T01:00:01;9.63;;;3.13;;
48685;SDS011;34485;51.536;3.816;2023-07-13T01:02:34;15.57;;;3.70;;
48685;SDS011;34485;51.536;3.816;2023-07-13T01:05:08;15.20;;;3.55;;
48685;SDS011;34485;51.536;3.816;2023-07-13T01:07:41;19.88;;;4.00;;
48685;SDS011;34485;51.536;3.816;2023-07-13T01:10:09;15.17;;;3.63;;
48685;SDS011;34485;51.536;3.816;2023-07-13T01:12:35;22.10;;;4.20;;
48685;SDS011;34485;51.536;3.816;2023-07-13T01:15:02;15.95;;;4.32;;
48685;SDS011;34485;51.536;3.816;2023-07-13T01:17:28;13.05;;;2.97;;
48685;SDS011;34485;51.536;3.816;2023-07-13T01:19:54;23.67;;;4.53;;
48685;SDS011;34485;51.536;3.816;2023-07-13T01:22:20;16.67;;;4.30;;
48685;SDS011;34485;51.536;3.816;2023-07-13T01:24:51;18.20;;;4.45;;
48685;SDS011;34485;51.536;3.816;2023-07-13T01:27:21;18.60;;;4.60;;
48685;SDS011;34485;51.536;3.816;2023-07-13T01:29:50;10.68;;;3.15;;
48685;SDS011;34485;51.536;3.816;2023-07-13T01:32:18;13.02;;;3.92;;
48685;SDS011;34485;51.536;3.816;2023-07-13T01:34:46;15.53;;;2.97;;
48685;SDS011;34485;51.536;3.816;2023-07-13T01:37:12;18.83;;;3.95;;
48685;SDS011;34485;51.536;3.816;2023-07-13T01:39:38;15.20;;;3.70;;
48685;SDS011;34485;51.536;3.816;2023-07-13T01:42:04;13.93;;;3.73;;
48685;SDS011;34485;51.536;3.816;2023-07-13T01:44:30;17.10;;;4.07;;
48685;SDS011;34485;51.536;3.816;2023-07-13T01:46:55;13.32;;;3.72;;
48685;SDS011;34485;51.536;3.816;2023-07-13T01:49:21;16.30;;;4.47;;
48685;SDS011;34485;51.536;3.816;2023-07-13T01:51:47;13.60;;;4.05;;
48685;SDS011;34485;51.536;3.816;2023-07-13T01:54:12;17.60;;;4.13;;
48685;SDS011;34485;51.536;3.816;2023-07-13T01:56:38;17.85;;;4.25;;
48685;SDS011;34485;51.536;3.816;2023-07-13T01:59:04;12.73;;;3.63;;
48685;SDS011;34485;51.536;3.816;2023-07-13T02:01:30;22.83;;;5.47;;
48685;SDS011;34485;51.536;3.816;2023-07-13T02:03:56;11.97;;;3.83;;
48685;SDS011;34485;51.536;3.816;2023-07-13T02:06:21;19.38;;;4.50;;
48685;SDS011;34485;51.536;3.816;2023-07-13T02:08:47;17.57;;;4.30;;
48685;SDS011;34485;51.536;3.816;2023-07-13T02:11:13;20.42;;;4.25;;
48685;SDS011;34485;51.536;3.816;2023-07-13T02:13:39;14.00;;;3.17;;
48685;SDS011;34485;51.536;3.816;2023-07-13T02:16:04;17.42;;;4.43;;
48685;SDS011;34485;51.536;3.816;2023-07-13T02:18:31;12.75;;;5.03;;
48685;SDS011;34485;51.536;3.816;2023-07-13T02:20:57;17.13;;;4.80;;
48685;SDS011;34485;51.536;3.816;2023-07-13T02:23:23;15.90;;;5.23;;
48685;SDS011;34485;51.536;3.816;2023-07-13T02:25:48;19.00;;;5.37;;
48685;SDS011;34485;51.536;3.816;2023-07-13T02:28:14;18.35;;;4.43;;
48685;SDS011;34485;51.536;3.816;2023-07-13T02:30:40;12.25;;;3.97;;
48685;SDS011;34485;51.536;3.816;2023-07-13T02:33:05;19.43;;;4.20;;
48685;SDS011;34485;51.536;3.816;2023-07-13T02:35:31;15.87;;;4.30;;
48685;SDS011;34485;51.536;3.816;2023-07-13T02:37:57;24.40;;;5.72;;
48685;SDS011;34485;51.536;3.816;2023-07-13T02:40:23;19.95;;;7.40;;
48685;SDS011;34485;51.536;3.816;2023-07-13T02:42:48;19.23;;;4.47;;
48685;SDS011;34485;51.536;3.816;2023-07-13T02:45:14;21.98;;;5.32;;
48685;SDS011;34485;51.536;3.816;2023-07-13T02:47:40;17.43;;;4.57;;
48685;SDS011;34485;51.536;3.816;2023-07-13T02:50:07;22.58;;;5.18;;
48685;SDS011;34485;51.536;3.816;2023-07-13T02:52:33;17.58;;;4.60;;
48685;SDS011;34485;51.536;3.816;2023-07-13T02:54:59;16.43;;;4.73;;
48685;SDS011;34485;51.536;3.816;2023-07-13T02:57:25;15.33;;;4.63;;
48685;SDS011;34485;51.536;3.816;2023-07-13T02:59:52;20.75;;;4.95;;
48685;SDS011;34485;51.536;3.816;2023-07-13T03:02:17;21.93;;;5.27;;
48685;SDS011;34485;51.536;3.816;2023-07-13T03:04:43;17.25;;;4.10;;
48685;SDS011;34485;51.536;3.816;2023-07-13T03:07:09;15.87;;;5.27;;
48685;SDS011;34485;51.536;3.816;2023-07-13T03:09:34;19.08;;;6.03;;
48685;SDS011;34485;51.536;3.816;2023-07-13T03:12:01;22.33;;;5.43;;
48685;SDS011;34485;51.536;3.816;2023-07-13T03:14:27;22.17;;;4.93;;
48685;SDS011;34485;51.536;3.816;2023-07-13T03:16:53;16.38;;;4.80;;
48685;SDS011;34485;51.536;3.816;2023-07-13T03:19:19;25.88;;;5.38;;
48685;SDS011;34485;51.536;3.816;2023-07-13T03:21:45;26.93;;;5.63;;
48685;SDS011;34485;51.536;3.816;2023-07-13T03:24:10;20.13;;;5.28;;
48685;SDS011;34485;51.536;3.816;2023-07-13T03:26:36;16.23;;;5.10;;
48685;SDS011;34485;51.536;3.816;2023-07-13T03:29:04;24.17;;;4.95;;
48685;SDS011;34485;51.536;3.816;2023-07-13T03:31:32;14.05;;;4.60;;
48685;SDS011;34485;51.536;3.816;2023-07-13T03:33:59;22.70;;;6.40;;
48685;SDS011;34485;51.536;3.816;2023-07-13T03:36:26;13.23;;;4.50;;
48685;SDS011;34485;51.536;3.816;2023-07-13T03:38:54;24.45;;;6.57;;
48685;SDS011;34485;51.536;3.816;2023-07-13T03:41:22;21.98;;;4.63;;
48685;SDS011;34485;51.536;3.816;2023-07-13T03:43:49;23.67;;;5.53;;
48685;SDS011;34485;51.536;3.816;2023-07-13T03:46:15;25.90;;;6.07;;
48685;SDS011;34485;51.536;3.816;2023-07-13T03:48:43;20.58;;;5.13;;
48685;SDS011;34485;51.536;3.816;2023-07-13T03:51:10;20.75;;;5.40;;
48685;SDS011;34485;51.536;3.816;2023-07-13T03:53:40;19.13;;;4.80;;
48685;SDS011;34485;51.536;3.816;2023-07-13T03:56:07;19.47;;;5.07;;
48685;SDS011;34485;51.536;3.816;2023-07-13T03:58:34;14.50;;;4.68;;
48685;SDS011;34485;51.536;3.816;2023-07-13T04:01:02;21.95;;;5.05;;
48685;SDS011;34485;51.536;3.816;2023-07-13T04:03:30;12.30;;;4.65;;
48685;SDS011;34485;51.536;3.816;2023-07-13T04:05:58;19.60;;;5.40;;
48685;SDS011;34485;51.536;3.816;2023-07-13T04:08:35;19.50;;;4.73;;
48685;SDS011;34485;51.536;3.816;2023-07-13T04:11:03;21.48;;;5.65;;
48685;SDS011;34485;51.536;3.816;2023-07-13T04:13:29;20.50;;;4.30;;
48685;SDS011;34485;51.536;3.816;2023-07-13T04:15:55;14.55;;;4.88;;
48685;SDS011;34485;51.536;3.816;2023-07-13T04:18:21;24.77;;;5.63;;
48685;SDS011;34485;51.536;3.816;2023-07-13T04:20:47;20.60;;;4.55;;
48685;SDS011;34485;51.536;3.816;2023-07-13T04:23:14;18.77;;;5.00;;
48685;SDS011;34485;51.536;3.816;2023-07-13T04:25:43;23.92;;;5.47;;
48685;SDS011;34485;51.536;3.816;2023-07-13T04:28:14;16.92;;;5.10;;
48685;SDS011;34485;51.536;3.816;2023-07-13T04:30:43;23.43;;;5.03;;
48685;SDS011;34485;51.536;3.816;2023-07-13T04:33:09;16.33;;;4.43;;
48685;SDS011;34485;51.536;3.816;2023-07-13T04:35:35;17.47;;;5.33;;
48685;SDS011;34485;51.536;3.816;2023-07-13T04:38:01;19.70;;;3.88;;
48685;SDS011;34485;51.536;3.816;2023-07-13T04:40:27;23.58;;;4.10;;
48685;SDS011;34485;51.536;3.816;2023-07-13T04:42:54;21.02;;;4.78;;
48685;SDS011;34485;51.536;3.816;2023-07-13T04:45:20;23.73;;;5.17;;
48685;SDS011;34485;51.536;3.816;2023-07-13T04:47:46;19.75;;;6.30;;
48685;SDS011;34485;51.536;3.816;2023-07-13T04:50:13;13.90;;;4.50;;
48685;SDS011;34485;51.536;3.816;2023-07-13T04:52:46;18.52;;;4.25;;
48685;SDS011;34485;51.536;3.816;2023-07-13T04:55:12;20.73;;;4.70;;
48685;SDS011;34485;51.536;3.816;2023-07-13T04:57:37;19.57;;;5.47;;
48685;SDS011;34485;51.536;3.816;2023-07-13T05:00:03;15.73;;;5.20;;
48685;SDS011;34485;51.536;3.816;2023-07-13T05:02:32;14.05;;;5.38;;
48685;SDS011;34485;51.536;3.816;2023-07-13T05:04:58;16.60;;;4.80;;
48685;SDS011;34485;51.536;3.816;2023-07-13T05:07:24;15.03;;;6.03;;
48685;SDS011;34485;51.536;3.816;2023-07-13T05:09:50;24.30;;;4.63;;
48685;SDS011;34485;51.536;3.816;2023-07-13T05:12:16;18.98;;;4.20;;
48685;SDS011;34485;51.536;3.816;2023-07-13T05:14:42;17.07;;;5.03;;
48685;SDS011;34485;51.536;3.816;2023-07-13T05:17:08;19.52;;;5.00;;
48685;SDS011;34485;51.536;3.816;2023-07-13T05:19:34;16.58;;;4.47;;
48685;SDS011;34485;51.536;3.816;2023-07-13T05:22:00;20.57;;;4.33;;
48685;SDS011;34485;51.536;3.816;2023-07-13T05:24:26;20.20;;;4.28;;
48685;SDS011;34485;51.536;3.816;2023-07-13T05:26:52;14.35;;;4.88;;
48685;SDS011;34485;51.536;3.816;2023-07-13T05:29:18;18.87;;;5.00;;
48685;SDS011;34485;51.536;3.816;2023-07-13T05:31:45;19.77;;;4.70;;
48685;SDS011;34485;51.536;3.816;2023-07-13T05:34:10;15.35;;;3.55;;
48685;SDS011;34485;51.536;3.816;2023-07-13T05:36:36;19.80;;;5.30;;
48685;SDS011;34485;51.536;3.816;2023-07-13T05:39:02;11.80;;;3.70;;
48685;SDS011;34485;51.536;3.816;2023-07-13T05:41:28;15.43;;;4.32;;
48685;SDS011;34485;51.536;3.816;2023-07-13T05:43:54;16.70;;;4.88;;
48685;SDS011;34485;51.536;3.816;2023-07-13T05:46:20;20.53;;;5.03;;
48685;SDS011;34485;51.536;3.816;2023-07-13T05:48:45;23.00;;;4.65;;
48685;SDS011;34485;51.536;3.816;2023-07-13T05:51:11;10.67;;;3.80;;
48685;SDS011;34485;51.536;3.816;2023-07-13T05:53:37;17.27;;;3.92;;
48685;SDS011;34485;51.536;3.816;2023-07-13T05:56:03;14.67;;;3.87;;
48685;SDS011;34485;51.536;3.816;2023-07-13T05:58:28;18.80;;;4.03;;
48685;SDS011;34485;51.536;3.816;2023-07-13T06:03:28;19.73;;;5.07;;
48685;SDS011;34485;51.536;3.816;2023-07-13T06:05:54;18.83;;;5.13;;
48685;SDS011;34485;51.536;3.816;2023-07-13T06:08:19;6.10;;;2.70;;
48685;SDS011;34485;51.536;3.816;2023-07-13T06:10:45;13.02;;;3.60;;
48685;SDS011;34485;51.536;3.816;2023-07-13T06:13:10;14.00;;;4.10;;
48685;SDS011;34485;51.536;3.816;2023-07-13T06:15:36;16.02;;;3.97;;
48685;SDS011;34485;51.536;3.816;2023-07-13T06:18:02;14.83;;;4.77;;
48685;SDS011;34485;51.536;3.816;2023-07-13T06:20:27;17.15;;;3.75;;
48685;SDS011;34485;51.536;3.816;2023-07-13T06:22:54;21.57;;;4.77;;
48685;SDS011;34485;51.536;3.816;2023-07-13T06:25:19;11.15;;;3.45;;
48685;SDS011;34485;51.536;3.816;2023-07-13T06:27:45;10.77;;;3.90;;
48685;SDS011;34485;51.536;3.816;2023-07-13T06:30:11;14.82;;;3.95;;
48685;SDS011;34485;51.536;3.816;2023-07-13T06:32:37;20.83;;;3.67;;
48685;SDS011;34485;51.536;3.816;2023-07-13T06:35:03;10.57;;;4.20;;
48685;SDS011;34485;51.536;3.816;2023-07-13T06:37:29;18.73;;;3.85;;
48685;SDS011;34485;51.536;3.816;2023-07-13T06:39:55;17.77;;;4.40;;
48685;SDS011;34485;51.536;3.816;2023-07-13T06:42:20;10.52;;;3.80;;
48685;SDS011;34485;51.536;3.816;2023-07-13T06:44:46;11.13;;;3.53;;
48685;SDS011;34485;51.536;3.816;2023-07-13T06:47:12;14.30;;;3.45;;
48685;SDS011;34485;51.536;3.816;2023-07-13T06:49:37;13.57;;;4.43;;
48685;SDS011;34485;51.536;3.816;2023-07-13T06:52:03;14.73;;;4.00;;
48685;SDS011;34485;51.536;3.816;2023-07-13T06:54:29;12.50;;;3.80;;
48685;SDS011;34485;51.536;3.816;2023-07-13T06:56:55;18.17;;;3.83;;
48685;SDS011;34485;51.536;3.816;2023-07-13T06:59:20;15.00;;;4.07;;
48685;SDS011;34485;51.536;3.816;2023-07-13T07:01:46;11.10;;;3.67;;
48685;SDS011;34485;51.536;3.816;2023-07-13T07:04:12;9.60;;;3.90;;
48685;SDS011;34485;51.536;3.816;2023-07-13T07:06:37;13.40;;;3.90;;
48685;SDS011;34485;51.536;3.816;2023-07-13T07:09:03;13.98;;;3.80;;
48685;SDS011;34485;51.536;3.816;2023-07-13T07:11:29;9.77;;;3.43;;
48685;SDS011;34485;51.536;3.816;2023-07-13T07:13:55;12.15;;;3.75;;
48685;SDS011;34485;51.536;3.816;2023-07-13T07:16:20;13.63;;;3.40;;
48685;SDS011;34485;51.536;3.816;2023-07-13T07:18:47;11.85;;;3.78;;
48685;SDS011;34485;51.536;3.816;2023-07-13T07:21:13;9.15;;;2.95;;
48685;SDS011;34485;51.536;3.816;2023-07-13T07:23:40;6.60;;;3.03;;
48685;SDS011;34485;51.536;3.816;2023-07-13T07:26:05;10.10;;;2.90;;
48685;SDS011;34485;51.536;3.816;2023-07-13T07:28:33;15.35;;;3.67;;
48685;SDS011;34485;51.536;3.816;2023-07-13T07:30:59;12.70;;;3.60;;
48685;SDS011;34485;51.536;3.816;2023-07-13T07:33:25;14.63;;;3.30;;
48685;SDS011;34485;51.536;3.816;2023-07-13T07:35:51;7.07;;;2.67;;
48685;SDS011;34485;51.536;3.816;2023-07-13T07:38:17;5.77;;;2.60;;
48685;SDS011;34485;51.536;3.816;2023-07-13T07:40:42;6.85;;;2.55;;
48685;SDS011;34485;51.536;3.816;2023-07-13T07:43:09;10.70;;;2.78;;
48685;SDS011;34485;51.536;3.816;2023-07-13T07:45:36;8.90;;;2.97;;
48685;SDS011;34485;51.536;3.816;2023-07-13T07:48:02;3.30;;;2.10;;
48685;SDS011;34485;51.536;3.816;2023-07-13T07:50:29;6.80;;;2.58;;
48685;SDS011;34485;51.536;3.816;2023-07-13T07:52:55;7.30;;;2.85;;
48685;SDS011;34485;51.536;3.816;2023-07-13T07:55:21;6.13;;;2.60;;
48685;SDS011;34485;51.536;3.816;2023-07-13T07:57:48;9.10;;;2.97;;
48685;SDS011;34485;51.536;3.816;2023-07-13T08:00:14;6.03;;;2.75;;
48685;SDS011;34485;51.536;3.816;2023-07-13T08:02:40;8.15;;;3.08;;
48685;SDS011;34485;51.536;3.816;2023-07-13T08:05:09;6.00;;;2.50;;
48685;SDS011;34485;51.536;3.816;2023-07-13T08:07:36;8.23;;;2.87;;
48685;SDS011;34485;51.536;3.816;2023-07-13T08:10:02;3.17;;;2.17;;
48685;SDS011;34485;51.536;3.816;2023-07-13T08:12:28;9.00;;;3.20;;
48685;SDS011;34485;51.536;3.816;2023-07-13T08:14:54;9.27;;;2.77;;
48685;SDS011;34485;51.536;3.816;2023-07-13T08:17:22;4.72;;;2.40;;
48685;SDS011;34485;51.536;3.816;2023-07-13T08:19:49;4.88;;;2.35;;
48685;SDS011;34485;51.536;3.816;2023-07-13T08:22:15;8.93;;;2.95;;
48685;SDS011;34485;51.536;3.816;2023-07-13T08:24:41;5.50;;;2.80;;
48685;SDS011;34485;51.536;3.816;2023-07-13T08:27:10;6.45;;;2.95;;
48685;SDS011;34485;51.536;3.816;2023-07-13T08:29:36;5.50;;;2.95;;
48685;SDS011;34485;51.536;3.816;2023-07-13T08:32:02;3.17;;;2.28;;
48685;SDS011;34485;51.536;3.816;2023-07-13T08:34:29;3.42;;;2.20;;
48685;SDS011;34485;51.536;3.816;2023-07-13T08:36:55;6.63;;;2.93;;
48685;SDS011;34485;51.536;3.816;2023-07-13T08:39:21;4.50;;;2.20;;
48685;SDS011;34485;51.536;3.816;2023-07-13T08:41:47;3.97;;;2.60;;
48685;SDS011;34485;51.536;3.816;2023-07-13T08:44:25;4.63;;;2.50;;
48685;SDS011;34485;51.536;3.816;2023-07-13T08:47:02;2.47;;;2.27;;
48685;SDS011;34485;51.536;3.816;2023-07-13T08:49:28;2.60;;;2.40;;
48685;SDS011;34485;51.536;3.816;2023-07-13T08:52:00;4.22;;;2.47;;
48685;SDS011;34485;51.536;3.816;2023-07-13T08:54:31;7.68;;;2.35;;
48685;SDS011;34485;51.536;3.816;2023-07-13T08:57:03;6.18;;;2.40;;
48685;SDS011;34485;51.536;3.816;2023-07-13T08:59:39;3.93;;;2.23;;
48685;SDS011;34485;51.536;3.816;2023-07-13T09:05:01;3.72;;;2.30;;
48685;SDS011;34485;51.536;3.816;2023-07-13T09:10:46;2.90;;;2.55;;
48685;SDS011;34485;51.536;3.816;2023-07-13T09:15:52;9.50;;;2.70;;
48685;SDS011;34485;51.536;3.816;2023-07-13T09:18:35;4.32;;;2.80;;
48685;SDS011;34485;51.536;3.816;2023-07-13T09:21:05;4.07;;;2.53;;
48685;SDS011;34485;51.536;3.816;2023-07-13T09:23:35;6.33;;;2.43;;
48685;SDS011;34485;51.536;3.816;2023-07-13T09:28:45;4.05;;;2.95;;
48685;SDS011;34485;51.536;3.816;2023-07-13T09:31:15;5.57;;;2.95;;
48685;SDS011;34485;51.536;3.816;2023-07-13T09:33:41;6.03;;;2.80;;
48685;SDS011;34485;51.536;3.816;2023-07-13T09:36:26;3.20;;;2.60;;
48685;SDS011;34485;51.536;3.816;2023-07-13T09:44:07;4.43;;;2.92;;
48685;SDS011;34485;51.536;3.816;2023-07-13T09:46:34;5.97;;;2.53;;
48685;SDS011;34485;51.536;3.816;2023-07-13T09:49:00;6.18;;;2.60;;
48685;SDS011;34485;51.536;3.816;2023-07-13T09:51:26;4.55;;;2.60;;
48685;SDS011;34485;51.536;3.816;2023-07-13T09:53:53;4.17;;;2.43;;
48685;SDS011;34485;51.536;3.816;2023-07-13T09:56:20;2.67;;;2.30;;
48685;SDS011;34485;51.536;3.816;2023-07-13T09:58:46;3.05;;;2.75;;
48685;SDS011;34485;51.536;3.816;2023-07-13T10:01:11;3.03;;;2.50;;
48685;SDS011;34485;51.536;3.816;2023-07-13T10:03:37;3.42;;;2.47;;
48685;SDS011;34485;51.536;3.816;2023-07-13T10:06:12;3.58;;;2.40;;
48685;SDS011;34485;51.536;3.816;2023-07-13T10:08:44;4.27;;;2.50;;
48685;SDS011;34485;51.536;3.816;2023-07-13T10:11:22;2.67;;;2.30;;
48685;SDS011;34485;51.536;3.816;2023-07-13T10:16:31;3.38;;;2.20;;
48685;SDS011;34485;51.536;3.816;2023-07-13T10:18:58;3.70;;;3.05;;
48685;SDS011;34485;51.536;3.816;2023-07-13T10:21:35;3.53;;;2.40;;
48685;SDS011;34485;51.536;3.816;2023-07-13T10:29:25;4.55;;;3.08;;
48685;SDS011;34485;51.536;3.816;2023-07-13T10:31:54;3.67;;;3.17;;
48685;SDS011;34485;51.536;3.816;2023-07-13T10:34:22;4.30;;;2.37;;
48685;SDS011;34485;51.536;3.816;2023-07-13T10:36:48;2.88;;;2.10;;
48685;SDS011;34485;51.536;3.816;2023-07-13T10:39:21;3.15;;;2.67;;
48685;SDS011;34485;51.536;3.816;2023-07-13T10:41:54;2.90;;;2.55;;
48685;SDS011;34485;51.536;3.816;2023-07-13T10:44:26;2.97;;;2.30;;
48685;SDS011;34485;51.536;3.816;2023-07-13T10:47:02;2.83;;;2.30;;
48685;SDS011;34485;51.536;3.816;2023-07-13T10:49:49;3.08;;;2.58;;
48685;SDS011;34485;51.536;3.816;2023-07-13T10:55:36;3.78;;;2.22;;
48685;SDS011;34485;51.536;3.816;2023-07-13T11:00:43;4.53;;;2.63;;
48685;SDS011;34485;51.536;3.816;2023-07-13T11:03:13;3.17;;;2.35;;
48685;SDS011;34485;51.536;3.816;2023-07-13T11:05:41;9.35;;;3.20;;
48685;SDS011;34485;51.536;3.816;2023-07-13T11:08:20;4.53;;;2.50;;
48685;SDS011;34485;51.536;3.816;2023-07-13T11:11:02;3.87;;;2.53;;
48685;SDS011;34485;51.536;3.816;2023-07-13T11:19:18;6.15;;;2.78;;
48685;SDS011;34485;51.536;3.816;2023-07-13T11:21:30;8.00;;;2.88;;
48685;SDS011;34485;51.536;3.816;2023-07-13T11:24:17;7.77;;;2.70;;
48685;SDS011;34485;51.536;3.816;2023-07-13T11:32:23;2.67;;;2.10;;
48685;SDS011;34485;51.536;3.816;2023-07-13T11:34:54;6.47;;;2.40;;
48685;SDS011;34485;51.536;3.816;2023-07-13T11:37:20;4.28;;;1.90;;
48685;SDS011;34485;51.536;3.816;2023-07-13T11:39:48;4.88;;;2.35;;
48685;SDS011;34485;51.536;3.816;2023-07-13T11:42:17;4.95;;;2.45;;
48685;SDS011;34485;51.536;3.816;2023-07-13T11:44:46;5.50;;;2.42;;
48685;SDS011;34485;51.536;3.816;2023-07-13T11:47:20;4.63;;;2.10;;
48685;SDS011;34485;51.536;3.816;2023-07-13T11:49:52;2.67;;;1.92;;
48685;SDS011;34485;51.536;3.816;2023-07-13T11:52:26;7.20;;;2.00;;
48685;SDS011;34485;51.536;3.816;2023-07-13T11:55:00;5.55;;;2.60;;
48685;SDS011;34485;51.536;3.816;2023-07-13T11:57:30;3.85;;;2.55;;
48685;SDS011;34485;51.536;3.816;2023-07-13T11:59:59;7.50;;;2.30;;
48685;SDS011;34485;51.536;3.816;2023-07-13T12:02:37;3.05;;;2.00;;
48685;SDS011;34485;51.536;3.816;2023-07-13T12:05:10;2.88;;;2.17;;
48685;SDS011;34485;51.536;3.816;2023-07-13T12:07:38;3.53;;;2.40;;
48685;SDS011;34485;51.536;3.816;2023-07-13T12:12:48;2.87;;;2.33;;
48685;SDS011;34485;51.536;3.816;2023-07-13T12:15:17;3.00;;;2.40;;
48685;SDS011;34485;51.536;3.816;2023-07-13T12:17:43;3.25;;;2.10;;
48685;SDS011;34485;51.536;3.816;2023-07-13T12:20:21;3.42;;;2.20;;
48685;SDS011;34485;51.536;3.816;2023-07-13T12:22:50;2.67;;;2.00;;
48685;SDS011;34485;51.536;3.816;2023-07-13T12:25:17;3.23;;;1.97;;
48685;SDS011;34485;51.536;3.816;2023-07-13T12:27:47;4.07;;;1.73;;
48685;SDS011;34485;51.536;3.816;2023-07-13T12:30:35;3.33;;;1.90;;
48685;SDS011;34485;51.536;3.816;2023-07-13T12:33:02;3.00;;;1.73;;
48685;SDS011;34485;51.536;3.816;2023-07-13T12:35:39;4.15;;;1.85;;
48685;SDS011;34485;51.536;3.816;2023-07-13T12:38:10;2.17;;;1.80;;
48685;SDS011;34485;51.536;3.816;2023-07-13T12:40:37;2.40;;;1.80;;
48685;SDS011;34485;51.536;3.816;2023-07-13T12:43:05;2.13;;;1.75;;
48685;SDS011;34485;51.536;3.816;2023-07-13T12:45:36;4.70;;;2.88;;
48685;SDS011;34485;51.536;3.816;2023-07-13T12:48:10;5.75;;;2.08;;
48685;SDS011;34485;51.536;3.816;2023-07-13T12:50:40;5.30;;;1.90;;
48685;SDS011;34485;51.536;3.816;2023-07-13T12:53:15;5.38;;;2.05;;
48685;SDS011;34485;51.536;3.816;2023-07-13T12:55:47;5.55;;;2.45;;
48685;SDS011;34485;51.536;3.816;2023-07-13T12:59:02;4.95;;;1.77;;
48685;SDS011;34485;51.536;3.816;2023-07-13T13:01:09;3.33;;;2.40;;
48685;SDS011;34485;51.536;3.816;2023-07-13T13:03:42;2.70;;;2.13;;
48685;SDS011;34485;51.536;3.816;2023-07-13T13:08:43;10.85;;;2.55;;
48685;SDS011;34485;51.536;3.816;2023-07-13T13:11:16;2.80;;;1.80;;
48685;SDS011;34485;51.536;3.816;2023-07-13T13:13:43;2.47;;;2.00;;
48685;SDS011;34485;51.536;3.816;2023-07-13T13:19:44;2.45;;;2.05;;
48685;SDS011;34485;51.536;3.816;2023-07-13T13:21:49;5.68;;;1.67;;
48685;SDS011;34485;51.536;3.816;2023-07-13T13:24:18;3.47;;;1.95;;
48685;SDS011;34485;51.536;3.816;2023-07-13T13:26:47;4.72;;;2.05;;
48685;SDS011;34485;51.536;3.816;2023-07-13T13:29:14;5.23;;;2.07;;
48685;SDS011;34485;51.536;3.816;2023-07-13T13:31:45;4.32;;;1.90;;
48685;SDS011;34485;51.536;3.816;2023-07-13T13:34:11;3.30;;;1.65;;
48685;SDS011;34485;51.536;3.816;2023-07-13T13:36:39;3.03;;;1.70;;
48685;SDS011;34485;51.536;3.816;2023-07-13T13:39:10;4.80;;;1.77;;
48685;SDS011;34485;51.536;3.816;2023-07-13T13:41:50;2.88;;;1.95;;
48685;SDS011;34485;51.536;3.816;2023-07-13T13:44:18;2.15;;;1.60;;
48685;SDS011;34485;51.536;3.816;2023-07-13T13:46:45;3.55;;;1.85;;
48685;SDS011;34485;51.536;3.816;2023-07-13T13:49:14;5.10;;;2.00;;
48685;SDS011;34485;51.536;3.816;2023-07-13T13:51:42;2.03;;;1.63;;
48685;SDS011;34485;51.536;3.816;2023-07-13T13:54:15;5.43;;;2.28;;
48685;SDS011;34485;51.536;3.816;2023-07-13T13:56:42;3.10;;;1.88;;
48685;SDS011;34485;51.536;3.816;2023-07-13T13:59:09;2.33;;;1.67;;
48685;SDS011;34485;51.536;3.816;2023-07-13T14:01:36;3.08;;;2.00;;
48685;SDS011;34485;51.536;3.816;2023-07-13T14:04:03;7.60;;;2.00;;
48685;SDS011;34485;51.536;3.816;2023-07-13T14:06:30;2.33;;;2.03;;
48685;SDS011;34485;51.536;3.816;2023-07-13T14:08:56;2.08;;;1.90;;
48685;SDS011;34485;51.536;3.816;2023-07-13T14:11:22;1.63;;;1.53;;
48685;SDS011;34485;51.536;3.816;2023-07-13T14:13:49;1.73;;;1.60;;
48685;SDS011;34485;51.536;3.816;2023-07-13T14:16:24;3.10;;;1.55;;
48685;SDS011;34485;51.536;3.816;2023-07-13T14:18:53;1.50;;;1.40;;
48685;SDS011;34485;51.536;3.816;2023-07-13T14:21:20;2.08;;;1.85;;
48685;SDS011;34485;51.536;3.816;2023-07-13T14:23:47;4.10;;;1.60;;
48685;SDS011;34485;51.536;3.816;2023-07-13T14:26:14;2.70;;;2.00;;
48685;SDS011;34485;51.536;3.816;2023-07-13T14:28:45;2.40;;;1.70;;
48685;SDS011;34485;51.536;3.816;2023-07-13T14:31:13;2.25;;;1.73;;
48685;SDS011;34485;51.536;3.816;2023-07-13T14:33:40;3.20;;;1.90;;
48685;SDS011;34485;51.536;3.816;2023-07-13T14:36:48;2.73;;;2.20;;
48685;SDS011;34485;51.536;3.816;2023-07-13T14:38:57;2.75;;;1.70;;
48685;SDS011;34485;51.536;3.816;2023-07-13T14:41:24;4.20;;;1.63;;
48685;SDS011;34485;51.536;3.816;2023-07-13T14:43:50;2.90;;;1.70;;
48685;SDS011;34485;51.536;3.816;2023-07-13T14:48:58;2.63;;;1.88;;
48685;SDS011;34485;51.536;3.816;2023-07-13T14:51:45;6.50;;;2.20;;
48685;SDS011;34485;51.536;3.816;2023-07-13T14:54:10;4.97;;;2.90;;
48685;SDS011;34485;51.536;3.816;2023-07-13T14:56:36;2.90;;;1.85;;
48685;SDS011;34485;51.536;3.816;2023-07-13T14:59:02;8.18;;;2.20;;
48685;SDS011;34485;51.536;3.816;2023-07-13T15:01:28;6.90;;;2.20;;
48685;SDS011;34485;51.536;3.816;2023-07-13T15:03:55;5.25;;;1.90;;
48685;SDS011;34485;51.536;3.816;2023-07-13T15:06:22;3.72;;;2.05;;
48685;SDS011;34485;51.536;3.816;2023-07-13T15:08:47;2.20;;;1.80;;
48685;SDS011;34485;51.536;3.816;2023-07-13T15:11:13;4.43;;;1.92;;
48685;SDS011;34485;51.536;3.816;2023-07-13T15:13:40;5.80;;;1.70;;
48685;SDS011;34485;51.536;3.816;2023-07-13T15:16:13;3.35;;;1.77;;
48685;SDS011;34485;51.536;3.816;2023-07-13T15:18:42;2.55;;;2.05;;
48685;SDS011;34485;51.536;3.816;2023-07-13T15:21:09;3.42;;;1.90;;
48685;SDS011;34485;51.536;3.816;2023-07-13T15:23:39;2.15;;;1.90;;
48685;SDS011;34485;51.536;3.816;2023-07-13T15:26:07;3.23;;;1.53;;
48685;SDS011;34485;51.536;3.816;2023-07-13T15:28:37;1.77;;;1.60;;
48685;SDS011;34485;51.536;3.816;2023-07-13T15:31:04;7.20;;;2.17;;
48685;SDS011;34485;51.536;3.816;2023-07-13T15:33:50;3.00;;;1.40;;
48685;SDS011;34485;51.536;3.816;2023-07-13T15:36:17;2.47;;;1.98;;
48685;SDS011;34485;51.536;3.816;2023-07-13T15:38:44;2.47;;;1.88;;
48685;SDS011;34485;51.536;3.816;2023-07-13T15:43:52;3.03;;;1.60;;
48685;SDS011;34485;51.536;3.816;2023-07-13T15:46:21;2.27;;;1.60;;